Etusivu
METAR-TAF:

METAR-TAF

Lentoasemat :

Baraboo Wisconsin Dells Airport

Baraboo / Wisconsin Dells, Wisconsin, Yhdysvallat

Leveyspiiri: 43-31-19N, Pituuspiiri: 089-46-15W, korkeus merenpinnasta: 298 m

Tämänhetkinen sää

Tämä raportti tehtiin 9 minuuttia sitten, kello 05.15 UTC
Tuuli 9 kn etelästä
Lämpötila 20°C
Kosteus 94%
Ilmanpaine 1009 hPa
Näkyvyys: 11.3 km
Hajonneita pilviä 4800 ft:n korkeudessa
Pilvistä 5500 ft:n korkeudessa

METAR: KDLL 250515Z AUTO 17009KT 7SM BKN048 OVC055 20/19 A2981 RMK AO2 LTG DSNT E THRU S T01970185

Aika: 00:24 (05:24 UTC)


TAF: puuttuu

Säähavainnot ja -ennusteet yli 4000 lentoasemalta (METAR- ja TAF-raportit).

Käytössä olevat sääasemat on merkitty karttaan keltaisilla ja punaisilla pisteillä.

Aseta hiiri pisteen päälle nähdäksesi sääaseman nimen.

Klikkaa sitten nähdäksesi säähavainnot ja -ennusteet.

Kartan vaihtaminen: klikkaa mustalla rastilla varustettuja vihreitä pisteitä, niin voit zoomata sisään; viivalla varustettua vihreää pistettä, niin voit zoomata ulos tai vihreitä nuolia, niin pääset viereisille kartoille.


METAR-TAF: